»·PEaware :: N6515D KMIT-KSNA

N6515D :: KMIT-KSNA

FLIGHT INFORMATION

Flight Status: Arrived
Operator: Privately registered:
United States
More flights under this callsign
Pilot: Charles S. (11412)
Aircraft: Unknown
(DA62)
More flights by this aircraft type
Origin: KMIT Shafter-Minter
United States
Destination: KSNA John Wayne-Orange Co
United States
More flights between these airports :: More routes between these airports
Route: +EHF V165 SAUGS V459 SLI
File this flight plan on PilotEdge
Remarks:
Altitude:
(Current/Filed)
9,000ft
Speed:
(Current/Filed)
270kts
Departed: 10-Oct-18 05:37 PM
Arrived: 10-Oct-18 06:35 PM
Distance/Time
Traveled:
128nm/0:58
Distance/Time
To Go:
Arrived

Flight Plot

Page will automatically refresh every two minutes.

Flight plan parsing failed; only flown route is shown


Map Options




Map Legend


Flown Route
Filed Route
Departure Airport
Arrival Airport
Navaid (VOR, NDB)
Fix

Horizontal Profiles

Position Reports

Time Latitude Longitude Heading Altitude Ground
Speed
10-Oct-18 17:22 35.500651 -119.184567 179 424ft 0kts
10-Oct-18 17:23 35.500651 -119.184567 179 424ft 0kts
10-Oct-18 17:24 35.500651 -119.184567 179 424ft 0kts
10-Oct-18 17:25 35.500651 -119.184567 179 424ft 0kts
10-Oct-18 17:26 35.500651 -119.184567 179 424ft 0kts
10-Oct-18 17:27 35.500651 -119.184567 179 424ft 0kts
10-Oct-18 17:28 35.500651 -119.184567 179 424ft 0kts
10-Oct-18 17:29 35.500651 -119.184567 179 424ft 0kts
10-Oct-18 17:30 35.500651 -119.184567 179 424ft 0kts
10-Oct-18 17:31 35.500651 -119.184567 179 424ft 0kts
10-Oct-18 17:32 35.500651 -119.184567 179 424ft 0kts
10-Oct-18 17:33 35.500651 -119.184567 179 424ft 0kts
10-Oct-18 17:34 35.500651 -119.184567 179 424ft 0kts
10-Oct-18 17:35 35.500651 -119.184567 179 424ft 0kts
10-Oct-18 17:36 35.500948 -119.185216 322 424ft 3kts
10-Oct-18 17:37 35.501222 -119.185401 271 424ft 0kts
10-Oct-18 17:38 35.501214 -119.185749 271 424ft 11kts
10-Oct-18 17:39 35.519568 -119.185636 40 877ft 98kts
10-Oct-18 17:40 35.501163 -119.189457 152 1947ft 103kts
10-Oct-18 17:41 35.495490 -119.147376 103 3136ft 125kts
10-Oct-18 17:42 35.488272 -119.112718 108 3885ft 128kts
10-Oct-18 17:43 35.470834 -119.081634 137 4679ft 128kts
10-Oct-18 17:44 35.443409 -119.050223 140 5570ft 140kts
10-Oct-18 17:45 35.414444 -119.017244 140 6470ft 144kts
10-Oct-18 17:46 35.384934 -118.983705 139 7357ft 146kts
10-Oct-18 17:47 35.354719 -118.949344 141 8159ft 150kts
10-Oct-18 17:48 35.324007 -118.914576 140 8944ft 152kts
10-Oct-18 17:49 35.283520 -118.868691 140 8993ft 182kts
10-Oct-18 17:50 35.245854 -118.826108 140 8991ft 186kts
10-Oct-18 17:51 35.214351 -118.790507 140 8992ft 186kts
10-Oct-18 17:52 35.166771 -118.748999 167 9024ft 179kts
10-Oct-18 17:53 35.127207 -118.735007 167 9047ft 179kts
10-Oct-18 17:54 35.079372 -118.718059 167 9071ft 178kts
10-Oct-18 17:55 35.031744 -118.701157 166 9090ft 179kts
10-Oct-18 17:56 34.984021 -118.684043 166 9090ft 180kts
10-Oct-18 17:57 34.935789 -118.666761 166 9091ft 182kts
10-Oct-18 17:58 34.888422 -118.649796 165 9049ft 185kts
10-Oct-18 17:59 34.839672 -118.632458 166 9039ft 184kts
10-Oct-18 18:00 34.790742 -118.615053 166 9028ft 184kts
10-Oct-18 18:01 34.741949 -118.597688 166 9015ft 182kts
10-Oct-18 18:02 34.693352 -118.580392 166 9011ft 180kts
10-Oct-18 18:03 34.647571 -118.555932 156 9023ft 180kts
10-Oct-18 18:04 34.602735 -118.529599 156 9007ft 179kts
10-Oct-18 18:05 34.557965 -118.503373 156 9014ft 178kts
10-Oct-18 18:06 34.513517 -118.477392 156 9008ft 178kts
10-Oct-18 18:07 34.468824 -118.451286 156 9005ft 178kts
10-Oct-18 18:08 34.424296 -118.425197 155 9008ft 178kts
10-Oct-18 18:09 34.372384 -118.394877 155 9013ft 178kts
10-Oct-18 18:10 34.335287 -118.373395 155 9011ft 178kts
10-Oct-18 18:11 34.291739 -118.348090 156 9007ft 179kts
10-Oct-18 18:12 34.247699 -118.322421 156 9001ft 179kts
10-Oct-18 18:13 34.202763 -118.296283 156 8999ft 179kts
10-Oct-18 18:14 34.157793 -118.270261 156 8999ft 179kts
10-Oct-18 18:15 34.114618 -118.245224 156 8998ft 179kts
10-Oct-18 18:16 34.072674 -118.220900 156 8980ft 180kts
10-Oct-18 18:17 34.029111 -118.195996 156 8541ft 175kts
10-Oct-18 18:18 33.992527 -118.174896 156 7782ft 171kts
10-Oct-18 18:19 33.950136 -118.150480 155 6777ft 169kts
10-Oct-18 18:20 33.908337 -118.126419 155 5986ft 156kts
10-Oct-18 18:21 33.873816 -118.106555 156 5978ft 125kts
10-Oct-18 18:22 33.836223 -118.085009 156 6000ft 155kts
10-Oct-18 18:23 33.802753 -118.065797 156 5987ft 174kts
10-Oct-18 18:24 33.784056 -118.024296 109 5420ft 177kts
10-Oct-18 18:25 33.769630 -117.971884 109 4669ft 175kts
10-Oct-18 18:26 33.758254 -117.930078 109 4041ft 161kts
10-Oct-18 18:27 33.745200 -117.881915 109 3220ft 145kts
10-Oct-18 18:28 33.738560 -117.837103 51 2996ft 141kts
10-Oct-18 18:29 33.773766 -117.827502 342 2992ft 135kts
10-Oct-18 18:30 33.810065 -117.839812 341 2989ft 142kts
10-Oct-18 18:31 33.826927 -117.811652 110 2984ft 141kts
10-Oct-18 18:32 33.802753 -117.785074 197 2987ft 133kts
10-Oct-18 18:33 33.766093 -117.810495 211 1803ft 149kts
10-Oct-18 18:34 33.730792 -117.833632 208 1174ft 142kts
10-Oct-18 18:35 33.697718 -117.854777 210 466ft 104kts
10-Oct-18 18:36 33.677883 -117.867444 209 60ft 67kts
10-Oct-18 18:37 33.675742 -117.871538 47 60ft 0kts
10-Oct-18 18:38 33.675743 -117.871537 47 60ft 0kts

Navigation Log

Ident Type
Flight plan parsing failed, navigation log unavailable